Nikolay Gamayunov — UHUS — position and weather

sailwx.info

Track history (hours):
 
Tides and Currents Weather Stations Pressure Air Temp Water Temp Dewpoint Dewpoint Depression Visibility Wind Speed Wind Dir Waves Ship Positions

Nikolay Gamayunov

Last reported at 2017-Oct-16 22:30 UTC. Time now 2017-Oct-16 22:41 UTC.
Position N 44°36' E 037°55'.

Length 104 m; draft 5.3 m.

Type: Tanker. MMSI: 273381530.

Date/timePositionNaut miles runAvg speedWind from/ knotsBaromVisibWave heightAir tempDewpointWater temp
2017-Oct-16 22:30N 44°36' E 037°55'0 0.1
2017-Oct-16 22:00N 44°36' E 037°55'0 0.0
2017-Oct-16 21:30N 44°36' E 037°55'0 0.0
2017-Oct-16 21:00N 44°36' E 037°55'0 0.0
2017-Oct-16 20:30N 44°36' E 037°55'0 0.1
2017-Oct-16 20:00N 44°36' E 037°55'0 0.0
2017-Oct-16 19:30N 44°36' E 037°55'0 0.0
2017-Oct-16 19:00N 44°36' E 037°55'0 0.0
2017-Oct-16 18:08N 44°36' E 037°55'0 0.0
2017-Oct-16 18:00N 44°36' E 037°55'0 0.0
2017-Oct-16 17:30N 44°36' E 037°55'0 0.0
2017-Oct-16 17:00N 44°36' E 037°55'0 0.0
2017-Oct-16 16:30N 44°36' E 037°55'0 0.1
2017-Oct-16 16:00N 44°36' E 037°55'0 0.0
2017-Oct-16 15:30N 44°36' E 037°55'0 0.0
2017-Oct-16 15:00N 44°36' E 037°55'0 0.0
2017-Oct-16 14:30N 44°36' E 037°55'0 0.0
2017-Oct-16 13:30N 44°36' E 037°55'0 0.0
2017-Oct-16 13:00N 44°36' E 037°55'0 0.0
2017-Oct-16 12:30N 44°36' E 037°55'0 0.0
2017-Oct-16 12:00N 44°36' E 037°55'0 0.0
2017-Oct-16 11:30N 44°36' E 037°55'0 0.1
2017-Oct-16 11:01N 44°36' E 037°55'0 0.0
2017-Oct-16 10:30N 44°36' E 037°55'0 0.0
2017-Oct-16 10:00N 44°36' E 037°55'0 0.0
2017-Oct-16 09:30N 44°36' E 037°55'0 0.0
2017-Oct-16 09:00N 44°36' E 037°55'0 0.0
2017-Oct-16 08:30N 44°36' E 037°55'0 0.0
2017-Oct-16 08:00N 44°36' E 037°55'0 0.0
2017-Oct-16 07:30N 44°36' E 037°55'0 0.0
2017-Oct-16 07:00N 44°36' E 037°55'0 0.0
2017-Oct-16 06:30N 44°36' E 037°55'0 0.0
2017-Oct-16 06:00N 44°36' E 037°55'0 0.0
2017-Oct-16 05:30N 44°36' E 037°55'0 0.0
2017-Oct-16 05:00N 44°36' E 037°55'0 0.0
2017-Oct-16 04:30N 44°36' E 037°55'0 0.0
2017-Oct-16 04:00N 44°36' E 037°55'0 0.0
2017-Oct-16 03:31N 44°36' E 037°55'0 0.0
2017-Oct-16 03:00N 44°36' E 037°55'0 0.0
2017-Oct-16 02:30N 44°36' E 037°55'0 0.0
2017-Oct-16 02:00N 44°36' E 037°55'0 0.0
2017-Oct-16 01:30N 44°36' E 037°55'0 0.0
2017-Oct-16 01:00N 44°36' E 037°55'0 0.1
2017-Oct-16 00:30N 44°36' E 037°55'0 0.0
2017-Oct-16 00:00N 44°36' E 037°55'0 0.3
2017-Oct-15 23:30N 44°36' E 037°55'0 0.9
2017-Oct-15 23:00N 44°36' E 037°55'2 4.5
2017-Oct-15 22:30N 44°38' E 037°53'5 9.4
2017-Oct-15 22:01N 44°42' E 037°50'1 2.0
2017-Oct-15 21:30N 44°43' E 037°51'0 0.0
2017-Oct-15 21:00N 44°43' E 037°51'0 0.0
2017-Oct-15 20:28N 44°43' E 037°51'0 0.0
2017-Oct-15 20:00N 44°43' E 037°51'0 0.0
2017-Oct-15 19:30N 44°43' E 037°51'0 0.0
2017-Oct-15 19:00N 44°43' E 037°51'0 0.0
2017-Oct-15 18:30N 44°43' E 037°51'0 0.0
2017-Oct-15 18:00N 44°43' E 037°51'0 0.0
2017-Oct-15 17:30N 44°43' E 037°51'0 0.0
2017-Oct-15 17:00N 44°43' E 037°51'0 0.0
2017-Oct-15 16:29N 44°43' E 037°51'0 0.0
2017-Oct-15 15:59N 44°43' E 037°51'0 0.0
2017-Oct-15 15:29N 44°43' E 037°51'0 0.0
2017-Oct-15 14:58N 44°43' E 037°51'0 0.0
2017-Oct-15 13:59N 44°43' E 037°51'0 0.0
2017-Oct-15 13:29N 44°43' E 037°51'0 0.0
2017-Oct-15 13:00N 44°43' E 037°51'0 0.0
2017-Oct-15 12:30N 44°43' E 037°51'0 0.0
2017-Oct-15 12:00N 44°43' E 037°51'1 2.3
2017-Oct-15 11:30N 44°42' E 037°50'4 8.7
2017-Oct-15 11:00N 44°38' E 037°53'2 4.2
2017-Oct-15 10:28N 44°36' E 037°56'0 0.1
2017-Oct-15 09:58N 44°36' E 037°56'0 0.2
2017-Oct-15 09:28N 44°36' E 037°56'0 0.0
2017-Oct-15 08:58N 44°36' E 037°56'0 0.0
2017-Oct-15 08:29N 44°36' E 037°56'0 0.0
2017-Oct-15 07:59N 44°36' E 037°56'0 0.0
2017-Oct-15 07:29N 44°36' E 037°56'0 0.0
2017-Oct-15 07:00N 44°36' E 037°56'0 0.0
2017-Oct-15 06:30N 44°36' E 037°56'0 0.0
2017-Oct-15 06:00N 44°36' E 037°56'0 0.0
2017-Oct-15 05:30N 44°36' E 037°56'0 0.0
2017-Oct-15 05:00N 44°36' E 037°56'0 0.0
2017-Oct-15 04:30N 44°36' E 037°56'0 0.0
2017-Oct-15 03:57N 44°36' E 037°56'0 0.0
2017-Oct-15 03:30N 44°36' E 037°56'0 0.0
2017-Oct-15 03:00N 44°36' E 037°56'0 0.2
2017-Oct-15 02:31N 44°36' E 037°55'1 2.1
2017-Oct-15 02:01N 44°35' E 037°56'2 4.7
2017-Oct-15 01:31N 44°34' E 037°54'4 8.8
2017-Oct-15 01:01N 44°31' E 037°49'510.2
2017-Oct-15 00:31N 44°29' E 037°42'510.1
2017-Oct-15 00:00N 44°27' E 037°36'5 9.9
2017-Oct-14 23:30N 44°25' E 037°30'  
2017-Oct-08 03:56N 40°44' E 029°27'4 9.8
2017-Oct-08 03:30N 40°44' E 029°21'4 7.2
2017-Oct-08 03:00N 40°43' E 029°17'4 7.5
2017-Oct-08 02:30N 40°43' E 029°12'611.1
2017-Oct-08 02:00N 40°46' E 029°05'611.1
2017-Oct-08 01:29N 40°49' E 028°59'711.3
2017-Oct-08 00:50N 40°56' E 028°56'410.7
2017-Oct-08 00:28N 40°59' E 028°59'  
Track history (hours):
 
Tides and Currents Weather Stations Pressure Air Temp Water Temp Dewpoint Dewpoint Depression Visibility Wind Speed Wind Dir Waves Ship Positions

Nikolay Gamayunov

Last reported at 2017-Oct-16 22:30 UTC. Time now 2017-Oct-16 22:41 UTC.
Position N 44°36' E 037°55'.

Length 104 m; draft 5.3 m.

Type: Tanker. MMSI: 273381530.

Date/timePositionNaut miles runAvg speedWind from/ knotsBaromVisibWave heightAir tempDewpointWater temp
2017-Oct-16 22:30N 44°36' E 037°55'0 0.1
2017-Oct-16 22:00N 44°36' E 037°55'0 0.0
2017-Oct-16 21:30N 44°36' E 037°55'0 0.0
2017-Oct-16 21:00N 44°36' E 037°55'0 0.0
2017-Oct-16 20:30N 44°36' E 037°55'0 0.1
2017-Oct-16 20:00N 44°36' E 037°55'0 0.0
2017-Oct-16 19:30N 44°36' E 037°55'0 0.0
2017-Oct-16 19:00N 44°36' E 037°55'0 0.0
2017-Oct-16 18:08N 44°36' E 037°55'0 0.0
2017-Oct-16 18:00N 44°36' E 037°55'0 0.0
2017-Oct-16 17:30N 44°36' E 037°55'0 0.0
2017-Oct-16 17:00N 44°36' E 037°55'0 0.0
2017-Oct-16 16:30N 44°36' E 037°55'0 0.1
2017-Oct-16 16:00N 44°36' E 037°55'0 0.0
2017-Oct-16 15:30N 44°36' E 037°55'0 0.0
2017-Oct-16 15:00N 44°36' E 037°55'0 0.0
2017-Oct-16 14:30N 44°36' E 037°55'0 0.0
2017-Oct-16 13:30N 44°36' E 037°55'0 0.0
2017-Oct-16 13:00N 44°36' E 037°55'0 0.0
2017-Oct-16 12:30N 44°36' E 037°55'0 0.0
2017-Oct-16 12:00N 44°36' E 037°55'0 0.0
2017-Oct-16 11:30N 44°36' E 037°55'0 0.1
2017-Oct-16 11:01N 44°36' E 037°55'0 0.0
2017-Oct-16 10:30N 44°36' E 037°55'0 0.0
2017-Oct-16 10:00N 44°36' E 037°55'0 0.0
2017-Oct-16 09:30N 44°36' E 037°55'0 0.0
2017-Oct-16 09:00N 44°36' E 037°55'0 0.0
2017-Oct-16 08:30N 44°36' E 037°55'0 0.0
2017-Oct-16 08:00N 44°36' E 037°55'0 0.0
2017-Oct-16 07:30N 44°36' E 037°55'0 0.0
2017-Oct-16 07:00N 44°36' E 037°55'0 0.0
2017-Oct-16 06:30N 44°36' E 037°55'0 0.0
2017-Oct-16 06:00N 44°36' E 037°55'0 0.0
2017-Oct-16 05:30N 44°36' E 037°55'0 0.0
2017-Oct-16 05:00N 44°36' E 037°55'0 0.0
2017-Oct-16 04:30N 44°36' E 037°55'0 0.0
2017-Oct-16 04:00N 44°36' E 037°55'0 0.0
2017-Oct-16 03:31N 44°36' E 037°55'0 0.0
2017-Oct-16 03:00N 44°36' E 037°55'0 0.0
2017-Oct-16 02:30N 44°36' E 037°55'0 0.0
2017-Oct-16 02:00N 44°36' E 037°55'0 0.0
2017-Oct-16 01:30N 44°36' E 037°55'0 0.0
2017-Oct-16 01:00N 44°36' E 037°55'0 0.1
2017-Oct-16 00:30N 44°36' E 037°55'0 0.0
2017-Oct-16 00:00N 44°36' E 037°55'0 0.3
2017-Oct-15 23:30N 44°36' E 037°55'0 0.9
2017-Oct-15 23:00N 44°36' E 037°55'2 4.5
2017-Oct-15 22:30N 44°38' E 037°53'5 9.4
2017-Oct-15 22:01N 44°42' E 037°50'1 2.0
2017-Oct-15 21:30N 44°43' E 037°51'0 0.0
2017-Oct-15 21:00N 44°43' E 037°51'0 0.0
2017-Oct-15 20:28N 44°43' E 037°51'0 0.0
2017-Oct-15 20:00N 44°43' E 037°51'0 0.0
2017-Oct-15 19:30N 44°43' E 037°51'0 0.0
2017-Oct-15 19:00N 44°43' E 037°51'0 0.0
2017-Oct-15 18:30N 44°43' E 037°51'0 0.0
2017-Oct-15 18:00N 44°43' E 037°51'0 0.0
2017-Oct-15 17:30N 44°43' E 037°51'0 0.0
2017-Oct-15 17:00N 44°43' E 037°51'0 0.0
2017-Oct-15 16:29N 44°43' E 037°51'0 0.0
2017-Oct-15 15:59N 44°43' E 037°51'0 0.0
2017-Oct-15 15:29N 44°43' E 037°51'0 0.0
2017-Oct-15 14:58N 44°43' E 037°51'0 0.0
2017-Oct-15 13:59N 44°43' E 037°51'0 0.0
2017-Oct-15 13:29N 44°43' E 037°51'0 0.0
2017-Oct-15 13:00N 44°43' E 037°51'0 0.0
2017-Oct-15 12:30N 44°43' E 037°51'0 0.0
2017-Oct-15 12:00N 44°43' E 037°51'1 2.3
2017-Oct-15 11:30N 44°42' E 037°50'4 8.7
2017-Oct-15 11:00N 44°38' E 037°53'2 4.2
2017-Oct-15 10:28N 44°36' E 037°56'0 0.1
2017-Oct-15 09:58N 44°36' E 037°56'0 0.2
2017-Oct-15 09:28N 44°36' E 037°56'0 0.0
2017-Oct-15 08:58N 44°36' E 037°56'0 0.0
2017-Oct-15 08:29N 44°36' E 037°56'0 0.0
2017-Oct-15 07:59N 44°36' E 037°56'0 0.0
2017-Oct-15 07:29N 44°36' E 037°56'0 0.0
2017-Oct-15 07:00N 44°36' E 037°56'0 0.0
2017-Oct-15 06:30N 44°36' E 037°56'0 0.0
2017-Oct-15 06:00N 44°36' E 037°56'0 0.0
2017-Oct-15 05:30N 44°36' E 037°56'0 0.0
2017-Oct-15 05:00N 44°36' E 037°56'0 0.0
2017-Oct-15 04:30N 44°36' E 037°56'0 0.0
2017-Oct-15 03:57N 44°36' E 037°56'0 0.0
2017-Oct-15 03:30N 44°36' E 037°56'0 0.0
2017-Oct-15 03:00N 44°36' E 037°56'0 0.2
2017-Oct-15 02:31N 44°36' E 037°55'1 2.1
2017-Oct-15 02:01N 44°35' E 037°56'2 4.7
2017-Oct-15 01:31N 44°34' E 037°54'4 8.8
2017-Oct-15 01:01N 44°31' E 037°49'510.2
2017-Oct-15 00:31N 44°29' E 037°42'510.1
2017-Oct-15 00:00N 44°27' E 037°36'5 9.9
2017-Oct-14 23:30N 44°25' E 037°30'  
2017-Oct-08 03:56N 40°44' E 029°27'4 9.8
2017-Oct-08 03:30N 40°44' E 029°21'4 7.2
2017-Oct-08 03:00N 40°43' E 029°17'4 7.5
2017-Oct-08 02:30N 40°43' E 029°12'611.1
2017-Oct-08 02:00N 40°46' E 029°05'611.1
2017-Oct-08 01:29N 40°49' E 028°59'711.3
2017-Oct-08 00:50N 40°56' E 028°56'410.7
2017-Oct-08 00:28N 40°59' E 028°59'  

Dump ship's entire track history